WetterOnline ( https://www.wetteronline.de )

Wetter aktuell Willingen

Aktuelles Wetter: Kahler Asten (841m)

6-stündlich | Neueste Meldungen
Ortszeit Temperatur Wetter
Mi, 05.10. 8:00 7.7° C Nebel
Mi, 05.10. 2:00 8.6° C wolkenlos
Di, 04.10. 20:00 10.2° C leicht bewölkt
Di, 04.10. 14:00 12.4° C leicht bewölkt
Di, 04.10. 8:00 6.7° C bedeckt
Di, 04.10. 2:00 6.7° C bedeckt
Mo, 03.10. 20:00 7.2° C bedeckt
Mo, 03.10. 14:00 9.3° C wolkig
Ortszeit Temperatur Wetter
Mi, 05.10. 9:30 8.1° C Nebel
Mi, 05.10. 9:20 8.1° C Dunst
Mi, 05.10. 9:10 7.9° C Nebel
Mi, 05.10. 9:00 7.8° C Nebel
Mi, 05.10. 8:50 7.8° C Nebel
Mi, 05.10. 8:40 7.7° C Nebel
Mi, 05.10. 8:30 7.7° C Nebel
Mi, 05.10. 8:00 7.7° C Nebel
Mi, 05.10. 7:30 7.7° C Nebel
Mi, 05.10. 7:00 7.9° C Nebel
Mi, 05.10. 6:30 8.3° C Nebel
Ortszeit Relative Feuchte Sichtweite
Mi, 05.10. 8:00 100% <100 m
Mi, 05.10. 2:00 97% 15 km
Di, 04.10. 20:00 78% 60 km
Di, 04.10. 14:00 63% 60 km
Di, 04.10. 8:00 92% 40 km
Di, 04.10. 2:00 93% 40 km
Mo, 03.10. 20:00 91% 40 km
Mo, 03.10. 14:00 78% >70 km
Ortszeit Relative Feuchte Sichtweite
Mi, 05.10. 9:30 100% 3.6 km
Mi, 05.10. 9:20 100% -
Mi, 05.10. 9:10 100% -
Mi, 05.10. 9:00 100% 0.3 km
Mi, 05.10. 8:50 100% -
Mi, 05.10. 8:40 100% -
Mi, 05.10. 8:30 100% 100 m
Mi, 05.10. 8:00 100% <100 m
Mi, 05.10. 7:30 100% <100 m
Mi, 05.10. 7:00 99% 9 km
Mi, 05.10. 6:30 100% 100 m
Ortszeit Niederschlagsmenge Niederschlagsart
Mi, 05.10. 8:00 0.0 l/m2 in 12 Std. -
Mi, 05.10. 2:00 0.0 l/m2 in 6 Std. -
Di, 04.10. 20:00 0.0 l/m2 in 12 Std. -
Di, 04.10. 14:00 0.0 l/m2 in 6 Std. -
Di, 04.10. 8:00 0.0 l/m2 in 12 Std. -
Di, 04.10. 2:00 0.0 l/m2 in 6 Std. -
Mo, 03.10. 20:00 0.4 l/m2 in 12 Std. -
Mo, 03.10. 14:00 0.4 l/m2 in 6 Std. Regen
Ortszeit Niederschlagsmenge Niederschlagsart
Mi, 05.10. 9:30 0.0 l/m2 in 1 Std. -
Mi, 05.10. 9:20 keine Meldung -
Mi, 05.10. 9:10 keine Meldung -
Mi, 05.10. 9:00 0.0 l/m2 in 1 Std. -
Mi, 05.10. 8:50 keine Meldung -
Mi, 05.10. 8:40 keine Meldung -
Mi, 05.10. 8:30 0.0 l/m2 in 1 Std. -
Mi, 05.10. 8:00 0.0 l/m2 in 1 Std. -
Mi, 05.10. 7:30 0.0 l/m2 in 1 Std. -
Mi, 05.10. 7:00 0.0 l/m2 in 1 Std. -
Mi, 05.10. 6:30 0.0 l/m2 in 1 Std. -
Ortszeit Stärke Spitze Richtung
km/h Bft. km/h Grad Sektor
Mi, 05.10. 8:00 33 5 48 230° SW
Mi, 05.10. 2:00 36 5 47 220° SW
Di, 04.10. 20:00 22 4 36 220° SW
Di, 04.10. 14:00 22 4 33 200° S
Di, 04.10. 8:00 18 3 25 200° S
Di, 04.10. 2:00 15 3 19 260° W
Mo, 03.10. 20:00 14 3 25 310° NW
Mo, 03.10. 14:00 17 3 31 320° NW
Ortszeit Stärke Spitze Richtung
km/h Bft. km/h Grad Sektor
Mi, 05.10. 9:30 32 5 47 230° SW
Mi, 05.10. 9:20 32 5 - 230° SW
Mi, 05.10. 9:10 28 4 - 240° SW
Mi, 05.10. 9:00 29 5 47 240° SW
Mi, 05.10. 8:50 29 5 - 240° SW
Mi, 05.10. 8:40 30 5 - 230° SW
Mi, 05.10. 8:30 31 5 44 240° SW
Mi, 05.10. 8:00 33 5 46 230° SW
Mi, 05.10. 7:30 35 5 46 230° SW
Mi, 05.10. 7:00 35 5 43 230° SW
Mi, 05.10. 6:30 32 5 40 230° SW
Ortszeit Untergrenze Bedeckung Gattung
total tief tief mittel hoch
Mi, 05.10. 8:00 - 8/8 - - - -
Mi, 05.10. 2:00 - 0/8 0/8 - - -
Di, 04.10. 20:00 9000 m 4/8 0/8 - - -
Di, 04.10. 14:00 4200 m 2/8 2/8 - - -
Di, 04.10. 8:00 2400 m 8/8 8/8 - - -
Di, 04.10. 2:00 3900 m 8/8 8/8 - - -
Mo, 03.10. 20:00 5700 m 8/8 8/8 - - -
Mo, 03.10. 14:00 540 m 6/8 6/8 - - -
Ortszeit Bedeckungsgrad in Achtel und Wolkenuntergrenze
Mi, 05.10. 9:30 7(30m) 7(210m)
Mi, 05.10. 9:20 7(30m) 7(210m)
Mi, 05.10. 9:10 8
Mi, 05.10. 9:00 8
Mi, 05.10. 8:50 9 9 9
Mi, 05.10. 8:40 8
Mi, 05.10. 8:30 9 9 9
Mi, 05.10. 8:00 8
Mi, 05.10. 7:30 9 9 9
Mi, 05.10. 7:00 2(60m) 8(5700m)
Mi, 05.10. 6:30 1(30m) 8(5700m)
Ortszeit Stationsdruck (hPa) Tendenz (hPa in 3 Std.)
Mi, 05.10. 8:00 919 - 0,9
Mi, 05.10. 2:00 920 - 1,0
Di, 04.10. 20:00 922 + 0,1
Di, 04.10. 14:00 923 - 0,1
Di, 04.10. 8:00 922 - 0,8
Di, 04.10. 2:00 925 - 1,0
Mo, 03.10. 20:00 926 - 0,5
Mo, 03.10. 14:00 927 + 0,1
Ortszeit Stationsdruck (hPa) Tendenz (hPa in 3 Std.)
Mi, 05.10. 9:30 919 - 0,1
Mi, 05.10. 9:20 919 keine Meldung
Mi, 05.10. 9:10 919 keine Meldung
Mi, 05.10. 9:00 919 - 0,2
Mi, 05.10. 8:50 919 keine Meldung
Mi, 05.10. 8:40 919 keine Meldung
Mi, 05.10. 8:30 919 - 0,5
Mi, 05.10. 8:00 919 - 0,9
Mi, 05.10. 7:30 919 - 1,4
Mi, 05.10. 7:00 919 - 1,6
Mi, 05.10. 6:30 919 - 0,8
Ortszeit Schneehöhe (cm)
Mi, 05.10. 8:00 0
Mi, 05.10. 2:00 0
Di, 04.10. 20:00 0
Di, 04.10. 14:00 0
Di, 04.10. 8:00 0
Di, 04.10. 2:00 0
Mo, 03.10. 20:00 0
Mo, 03.10. 14:00 0
Ortszeit Schneehöhe (cm)
Mi, 05.10. 9:30 0
Mi, 05.10. 9:20 0
Mi, 05.10. 9:10 0
Mi, 05.10. 9:00 0
Mi, 05.10. 8:50 0
Mi, 05.10. 8:40 0
Mi, 05.10. 8:30 0
Mi, 05.10. 8:00 0
Mi, 05.10. 7:30 0
Mi, 05.10. 7:00 0
Mi, 05.10. 6:30 0
Link zu dieser Seite / Seite empfehlen

Das Wetter in ...